Sunday, December 17, 2017, 4:22 PM EST
Back to Local

KHWV, Shirley Brookhaven Airport

Location: Shirley, NY, United States Lat: 40.817
Local Time: 4:22 PM EST (21:22 GMT) Lon: -72.867
Time Zone: US/Eastern Elev: 82 ft

Show me the last for .
Show Coded

Time T Td Feel RH Dir Speed Gust Alt SLP Vis Weather Sky Remarks
2017-12-17 14:56 33 22 27 63 320° 7 - 30.25 30.25 10 CLR None
2017-12-17 13:56 33 22 26 63 300° 8 - 30.25 30.25 10 BKN044 OVC060 None
2017-12-17 12:56 33 22 26 63 320° 8 - 30.27 30.27 10 SCT043 OVC055 6-hr Min Temp (1pm): 27.0°F
6-hr Max Temp (1pm): 33.1°F
2017-12-17 11:56 32 21 26 63 340° 6 - 30.29 30.29 10 OVC036 None
2017-12-17 10:56 32 21 26 63 300° 6 - 30.30 30.30 10 OVC032 None
2017-12-17 09:56 31 20 25 63 350° 6 - 30.31 30.31 10 OVC036 None
2017-12-17 08:56 30 20 26 65 10° 3 - 30.30 30.30 10 OVC039 None
2017-12-17 07:56 27 18 - 68 - Calm - 30.30 30.30 10 FEW044 None
2017-12-17 06:56 29 18 25 63 30° 3 - 30.27 30.27 10 SCT034 BKN065 6-hr Min Temp (7am): 28.0°F
6-hr Max Temp (7am): 30.9°F
2017-12-17 05:56 30 19 - 63 - Calm - 30.27 30.27 10 OVC050 None
2017-12-17 04:56 30 19 - 63 - Calm - 30.28 30.28 10 OVC035 None
2017-12-17 03:56 30 19 23 63 350° 7 - 30.26 30.26 10 OVC038 None
2017-12-17 02:56 31 20 - 63 - Calm - 30.25 30.26 10 BKN040 OVC055 None
2017-12-17 01:56 31 21 27 66 360° 3 - 30.24 30.24 10 FEW043 OVC055 None
2017-12-17 00:56 31 21 24 66 350° 7 - 30.22 30.22 10 OVC044 6-hr Min Temp (1am): 30.9°F
6-hr Max Temp (1am): 37.0°F
2017-12-16 23:56 32 22 26 65 360° 7 - 30.21 30.21 10 OVC046 24-hr Min Temp (12am): 19.0°F
24-hr Max Temp (12am): 37.9°F
2017-12-16 22:56 34 25 29 69 Variable 6 - 30.20 30.20 10 FEW030 OVC048 None
2017-12-16 21:56 35 25 28 66 330° 9 - 30.17 30.17 10 OVC043 None
2017-12-16 20:56 36 27 29 69 310° 9 - 30.15 30.15 10 OVC040 None
2017-12-16 19:56 36 28 29 72 320° 9 - 30.12 30.12 10 OVC037 None
2017-12-16 18:56 37 26 32 64 300° 7 - 30.10 30.11 10 OVC039 6-hr Precip Total (7pm): 0.00"
6-hr Min Temp (7pm): 36.0°F
6-hr Max Temp (7pm): 37.9°F
2017-12-16 17:56 37 26 32 64 290° 6 - 30.06 30.06 10 OVC039 1-hr Precip Total: Trace
2017-12-16 16:56 37 26 31 64 260° 8 - 30.03 30.03 10 OVC040 None

Support USWX by starting your Amazon purchase here.